Time;durP1;ratioP1;P1;durP2;ratioP2;P2;SDS_P1;SDS_P2;PMS_P1;PMS_P2;Temp;Humidity;BMP_temperature;BMP_pressure;BME280_temperature;BME280_humidity;BME280_pressure;Samples;Min_cycle;Max_cycle;Signal;HPM_P1;HPM_P2
2023/05/14 00:01:19;;;;;;;16.60;14.37;;;11.60;99.90;;;;;;5011532;28;20448;-67
2023/05/14 00:03:47;;;;;;;14.67;13.27;;;11.50;99.90;;;;;;5010303;28;20484;-68
2023/05/14 00:06:15;;;;;;;15.73;14.13;;;11.50;99.90;;;;;;5010777;28;20480;-68
2023/05/14 00:08:43;;;;;;;15.83;14.33;;;11.40;99.90;;;;;;5007072;28;20549;-67
2023/05/14 00:11:13;;;;;;;15.63;14.10;;;11.40;99.90;;;;;;5009692;28;20446;-68
2023/05/14 00:13:40;;;;;;;17.57;15.90;;;11.50;99.90;;;;;;5008971;28;20472;-67
2023/05/14 00:16:08;;;;;;;15.47;13.93;;;11.40;99.90;;;;;;4990570;28;20469;-67
2023/05/14 00:18:36;;;;;;;15.60;14.20;;;11.40;99.90;;;;;;4990811;28;20469;-66
2023/05/14 00:21:05;;;;;;;17.73;16.13;;;11.50;99.90;;;;;;4990573;28;21003;-68
2023/05/14 00:23:32;;;;;;;14.53;13.20;;;11.40;99.90;;;;;;4988983;28;20446;-68
2023/05/14 00:26:00;;;;;;;14.80;13.40;;;11.40;99.90;;;;;;4990772;28;20471;-68
2023/05/14 00:28:30;;;;;;;15.97;14.47;;;11.50;99.90;;;;;;4989937;28;20445;-66
2023/05/14 00:30:57;;;;;;;15.67;14.17;;;11.40;99.90;;;;;;4990317;28;20460;-67
2023/05/14 00:33:25;;;;;;;15.80;14.33;;;11.30;99.90;;;;;;4988776;28;20481;-67
2023/05/14 00:35:53;;;;;;;15.57;14.10;;;11.30;99.90;;;;;;4990228;28;20527;-67
2023/05/14 00:38:23;;;;;;;17.23;15.67;;;11.20;99.90;;;;;;4989463;28;20483;-67
2023/05/14 00:40:50;;;;;;;16.97;15.40;;;11.10;99.90;;;;;;4994706;28;20449;-67
2023/05/14 00:43:19;;;;;;;16.20;14.70;;;11.10;99.90;;;;;;5008083;28;20439;-67
2023/05/14 00:45:50;;;;;;;18.47;16.67;;;11.00;99.90;;;;;;5009619;28;20461;-67
2023/05/14 00:48:19;;;;;;;18.03;16.20;;;10.80;99.90;;;;;;5009538;28;20446;-67
2023/05/14 00:50:49;;;;;;;17.47;15.97;;;10.80;99.90;;;;;;5010061;28;20449;-67
2023/05/14 00:53:17;;;;;;;19.70;17.70;;;10.80;99.90;;;;;;5008083;28;20492;-67
2023/05/14 00:55:46;;;;;;;17.77;15.97;;;10.70;99.90;;;;;;5009358;28;20570;-67
2023/05/14 00:58:14;;;;;;;15.77;14.23;;;10.70;99.90;;;;;;5008333;28;20513;-67
2023/05/14 01:00:42;;;;;;;17.80;16.00;;;10.80;99.90;;;;;;5010840;28;20489;-67
2023/05/14 01:03:12;;;;;;;17.03;15.43;;;10.80;99.90;;;;;;5009925;28;20443;-67
2023/05/14 01:05:47;;;;;;;16.00;14.50;;;10.80;99.90;;;;;;5011880;28;20903;-67
2023/05/14 01:08:32;;;;;;;17.13;15.67;;;10.80;99.90;;;;;;5011231;28;20441;-67
2023/05/14 01:11:06;;;;;;;17.27;15.57;;;10.70;99.90;;;;;;5011813;28;20453;-67
2023/05/14 01:13:42;;;;;;;16.67;15.17;;;10.60;99.90;;;;;;5011197;28;20472;-68
2023/05/14 01:16:13;;;;;;;16.93;15.27;;;10.50;99.90;;;;;;5011824;28;20474;-67
2023/05/14 01:18:45;;;;;;;17.00;15.40;;;10.40;99.90;;;;;;5012177;28;20901;-68
2023/05/14 01:21:32;;;;;;;16.23;14.67;;;10.40;99.90;;;;;;5012555;28;20454;-67
2023/05/14 01:24:00;;;;;;;15.70;14.20;;;10.30;99.90;;;;;;5011369;28;20933;-67
2023/05/14 01:26:30;;;;;;;16.47;14.83;;;10.10;99.90;;;;;;5011619;28;20464;-68
2023/05/14 01:29:03;;;;;;;17.47;15.77;;;10.00;99.90;;;;;;5011451;28;20449;-67
2023/05/14 01:31:34;;;;;;;16.70;15.00;;;10.00;99.90;;;;;;5011658;28;20450;-67
2023/05/14 01:34:05;;;;;;;16.93;15.33;;;9.90;99.90;;;;;;5010004;28;20509;-67
2023/05/14 01:36:35;;;;;;;17.80;15.90;;;9.80;99.90;;;;;;5011485;28;20563;-67
2023/05/14 01:39:04;;;;;;;17.67;15.87;;;9.80;99.90;;;;;;5011130;28;20535;-67
2023/05/14 01:41:32;;;;;;;19.00;17.20;;;9.90;99.90;;;;;;5010612;28;20878;-67
2023/05/14 01:44:00;;;;;;;16.63;15.13;;;9.80;99.90;;;;;;5009406;28;20873;-67
2023/05/14 01:46:31;;;;;;;15.77;14.30;;;9.90;99.90;;;;;;5010907;28;20555;-67
2023/05/14 01:48:59;;;;;;;17.97;16.07;;;9.80;99.90;;;;;;5011054;28;20477;-67
2023/05/14 01:51:27;;;;;;;17.60;15.90;;;9.90;99.90;;;;;;5010214;28;20442;-67
2023/05/14 01:53:56;;;;;;;17.30;15.60;;;9.90;99.90;;;;;;5009679;28;20469;-67
2023/05/14 01:56:25;;;;;;;17.10;15.37;;;9.90;99.90;;;;;;5010707;28;20458;-67
2023/05/14 01:58:54;;;;;;;17.50;15.70;;;9.90;99.90;;;;;;5011048;28;20444;-67
2023/05/14 02:01:22;;;;;;;17.57;15.97;;;9.90;99.90;;;;;;5010637;28;20462;-66
2023/05/14 02:03:50;;;;;;;17.13;15.50;;;9.80;99.90;;;;;;5009322;28;20786;-67
2023/05/14 02:06:18;;;;;;;15.77;14.33;;;9.70;99.90;;;;;;5010672;28;20838;-67
2023/05/14 02:08:46;;;;;;;15.60;14.20;;;9.70;99.90;;;;;;5010749;28;21027;-67
2023/05/14 02:11:15;;;;;;;16.97;15.37;;;9.80;99.90;;;;;;5010801;28;20965;-67
2023/05/14 02:13:43;;;;;;;19.80;15.83;;;9.80;99.90;;;;;;5009427;28;20465;-66
2023/05/14 02:16:11;;;;;;;19.73;16.73;;;9.80;99.90;;;;;;5009243;28;21065;-67
2023/05/14 02:18:39;;;;;;;17.43;15.70;;;9.70;99.90;;;;;;5009726;28;20816;-67
2023/05/14 02:21:07;;;;;;;18.40;16.00;;;9.70;99.90;;;;;;5007955;28;20456;-67
2023/05/14 02:23:35;;;;;;;17.10;15.60;;;9.60;99.90;;;;;;5008361;28;20818;-67
2023/05/14 02:26:09;;;;;;;16.80;15.30;;;9.50;99.90;;;;;;5010274;28;20481;-66
2023/05/14 02:28:38;;;;;;;17.77;16.00;;;9.40;99.90;;;;;;5006301;28;20449;-67
2023/05/14 02:31:06;;;;;;;15.57;14.13;;;9.40;99.90;;;;;;5007790;28;20461;-66
2023/05/14 02:33:34;;;;;;;17.20;15.50;;;9.40;99.90;;;;;;5008223;28;20452;-67
2023/05/14 02:36:02;;;;;;;17.47;15.67;;;9.40;99.90;;;;;;5009603;28;20493;-67
2023/05/14 02:38:30;;;;;;;15.90;14.40;;;9.30;99.90;;;;;;5010378;28;20943;-67
2023/05/14 02:40:58;;;;;;;16.60;15.03;;;9.30;99.90;;;;;;5010052;28;20499;-67
2023/05/14 02:43:26;;;;;;;18.63;16.63;;;9.20;99.90;;;;;;5008906;28;20951;-66
2023/05/14 02:45:55;;;;;;;16.53;14.43;;;9.30;99.90;;;;;;5009319;28;20556;-67
2023/05/14 02:48:23;;;;;;;16.17;14.33;;;9.50;99.90;;;;;;5009809;28;20477;-66
2023/05/14 02:50:51;;;;;;;15.33;13.93;;;9.60;99.90;;;;;;5009237;28;21167;-67
2023/05/14 02:53:19;;;;;;;16.13;14.53;;;9.60;99.90;;;;;;5008684;28;20450;-66
2023/05/14 02:55:47;;;;;;;15.00;13.70;;;9.70;99.90;;;;;;5009406;28;20511;-67
2023/05/14 02:58:15;;;;;;;15.03;13.43;;;9.70;99.90;;;;;;5009611;28;20447;-67
2023/05/14 03:00:42;;;;;;;14.63;13.07;;;9.80;99.90;;;;;;5010037;28;20447;-67
2023/05/14 03:03:12;;;;;;;14.67;13.27;;;9.80;99.90;;;;;;5012798;28;20447;-67
2023/05/14 03:05:40;;;;;;;14.20;12.27;;;9.80;99.90;;;;;;5016615;28;20534;-67
2023/05/14 03:08:08;;;;;;;14.07;12.70;;;9.80;99.90;;;;;;5016224;28;20451;-67
2023/05/14 03:10:36;;;;;;;12.93;11.70;;;9.70;99.90;;;;;;5016653;28;20508;-67
2023/05/14 03:13:04;;;;;;;12.67;11.53;;;9.70;99.90;;;;;;5015133;28;20539;-67
2023/05/14 03:15:32;;;;;;;13.87;12.27;;;9.70;99.90;;;;;;5016095;28;20494;-67
2023/05/14 03:18:00;;;;;;;13.33;12.13;;;9.70;99.90;;;;;;5016633;28;20569;-67
2023/05/14 03:20:29;;;;;;;12.20;10.40;;;9.80;99.90;;;;;;5016425;28;20535;-66
2023/05/14 03:22:57;;;;;;;12.60;11.40;;;9.80;99.90;;;;;;5015421;28;20450;-67
2023/05/14 03:25:25;;;;;;;13.03;11.73;;;9.80;99.90;;;;;;5016330;28;20836;-66
2023/05/14 03:27:53;;;;;;;12.97;11.87;;;9.80;99.90;;;;;;5016319;28;20481;-67
2023/05/14 03:30:21;;;;;;;13.23;12.03;;;9.80;99.90;;;;;;5016303;28;20440;-66
2023/05/14 03:32:49;;;;;;;12.97;11.60;;;9.90;99.90;;;;;;5015409;28;20449;-67
2023/05/14 03:35:17;;;;;;;13.43;12.00;;;9.90;99.90;;;;;;5016430;28;20650;-67
2023/05/14 03:37:47;;;;;;;13.80;12.50;;;9.90;99.90;;;;;;5016214;28;20455;-67
2023/05/14 03:40:15;;;;;;;12.80;11.47;;;9.80;99.90;;;;;;5016498;28;20943;-67
2023/05/14 03:42:42;;;;;;;12.80;11.60;;;9.90;99.90;;;;;;5014776;28;20842;-67
2023/05/14 03:45:10;;;;;;;13.83;12.53;;;9.90;99.90;;;;;;5016410;28;20885;-68
2023/05/14 03:47:38;;;;;;;12.07;10.97;;;9.90;99.90;;;;;;5016395;28;20448;-67
2023/05/14 03:50:07;;;;;;;13.43;12.10;;;9.90;99.90;;;;;;5016310;28;20458;-67
2023/05/14 03:52:36;;;;;;;12.00;11.00;;;10.00;99.90;;;;;;5015241;28;20470;-68
2023/05/14 03:55:06;;;;;;;12.23;11.13;;;10.10;99.90;;;;;;5015642;28;20839;-67
2023/05/14 03:57:34;;;;;;;11.47;10.47;;;10.20;99.90;;;;;;5016214;28;20442;-67
2023/05/14 04:00:02;;;;;;;11.50;10.30;;;10.20;99.90;;;;;;5016213;28;20444;-67
2023/05/14 04:02:30;;;;;;;13.07;11.87;;;10.20;99.90;;;;;;5015099;28;20451;-67
2023/05/14 04:04:58;;;;;;;13.13;11.97;;;10.20;99.90;;;;;;5015767;28;20492;-67
2023/05/14 04:07:25;;;;;;;12.80;11.50;;;10.20;99.90;;;;;;5015950;28;20800;-67
2023/05/14 04:09:53;;;;;;;12.70;11.10;;;10.20;99.90;;;;;;5016054;28;20864;-67
2023/05/14 04:12:23;;;;;;;12.77;11.40;;;10.20;99.90;;;;;;5015582;28;20464;-67
2023/05/14 04:14:50;;;;;;;13.63;12.33;;;10.10;99.90;;;;;;5012673;28;20441;-68
2023/05/14 04:17:18;;;;;;;13.37;12.07;;;10.20;99.90;;;;;;5012728;28;20472;-67
2023/05/14 04:19:46;;;;;;;11.40;10.50;;;10.30;99.90;;;;;;5012635;28;20452;-67
2023/05/14 04:22:14;;;;;;;11.20;10.27;;;10.30;99.90;;;;;;5011897;28;20449;-67
2023/05/14 04:24:42;;;;;;;12.40;11.20;;;10.30;99.90;;;;;;5012061;28;20445;-67
2023/05/14 04:27:10;;;;;;;11.47;10.40;;;10.40;99.90;;;;;;5012546;28;20996;-67
2023/05/14 04:29:39;;;;;;;11.77;10.00;;;10.50;99.90;;;;;;5012566;28;20437;-67
2023/05/14 04:32:08;;;;;;;10.67;9.77;;;10.50;99.90;;;;;;5012164;28;20442;-67
2023/05/14 04:34:36;;;;;;;10.93;10.00;;;10.60;99.90;;;;;;5011574;28;20457;-67
2023/05/14 04:37:04;;;;;;;12.53;10.87;;;10.70;99.90;;;;;;5012401;28;20488;-67
2023/05/14 04:39:32;;;;;;;13.13;11.83;;;10.70;99.90;;;;;;5012394;28;20446;-66
2023/05/14 04:42:00;;;;;;;12.30;11.03;;;10.60;99.90;;;;;;5012316;28;20434;-66
2023/05/14 04:44:28;;;;;;;11.40;10.40;;;10.60;99.90;;;;;;5011374;28;20994;-67
2023/05/14 04:46:57;;;;;;;13.83;12.53;;;10.60;99.90;;;;;;5012295;28;20463;-67
2023/05/14 04:49:25;;;;;;;12.60;11.27;;;10.60;99.90;;;;;;5012135;28;20446;-67
2023/05/14 04:51:52;;;;;;;12.17;9.67;;;10.60;99.90;;;;;;5012404;28;20528;-67
2023/05/14 04:54:20;;;;;;;12.20;11.00;;;10.60;99.90;;;;;;5010723;28;20456;-66
2023/05/14 04:56:50;;;;;;;13.40;12.10;;;10.70;99.90;;;;;;5011891;28;20493;-67
2023/05/14 04:59:17;;;;;;;12.90;11.60;;;10.70;99.90;;;;;;5011089;28;20516;-67
2023/05/14 05:01:45;;;;;;;12.07;11.07;;;10.70;99.90;;;;;;5011309;28;20497;-67
2023/05/14 05:04:14;;;;;;;11.73;10.73;;;10.80;99.90;;;;;;5010456;28;20981;-67
2023/05/14 05:06:43;;;;;;;12.50;10.10;;;10.90;99.90;;;;;;5011715;28;20829;-67
2023/05/14 05:09:11;;;;;;;12.10;10.90;;;11.10;99.90;;;;;;5011837;28;20531;-68
2023/05/14 05:11:39;;;;;;;11.30;10.20;;;11.10;99.90;;;;;;5011537;28;20527;-67
2023/05/14 05:14:07;;;;;;;10.63;9.73;;;11.20;99.90;;;;;;5010380;28;21252;-67
2023/05/14 05:16:35;;;;;;;12.67;11.53;;;11.10;99.90;;;;;;5011464;28;20482;-67
2023/05/14 05:19:03;;;;;;;12.50;11.20;;;11.10;99.90;;;;;;5011547;28;20458;-68
2023/05/14 05:21:32;;;;;;;12.00;10.80;;;11.20;99.90;;;;;;5011470;28;20490;-68
2023/05/14 05:24:00;;;;;;;13.23;11.93;;;11.30;99.90;;;;;;5010047;28;20869;-67
2023/05/14 05:26:28;;;;;;;13.40;11.73;;;11.40;99.90;;;;;;5010295;28;20513;-68
2023/05/14 05:28:56;;;;;;;14.53;10.90;;;11.40;99.90;;;;;;5011503;28;20446;-68
2023/05/14 05:31:24;;;;;;;12.90;11.70;;;11.50;99.90;;;;;;5011247;28;20451;-68
2023/05/14 05:33:52;;;;;;;11.23;10.13;;;11.60;99.90;;;;;;5010246;28;20871;-68
2023/05/14 05:36:20;;;;;;;12.47;11.20;;;11.70;99.90;;;;;;5011116;28;20542;-68
2023/05/14 05:38:50;;;;;;;12.37;11.20;;;11.80;99.90;;;;;;5009647;28;20509;-68
2023/05/14 05:41:18;;;;;;;11.93;10.53;;;11.80;99.90;;;;;;5010453;28;20441;-68
2023/05/14 05:43:45;;;;;;;11.20;10.20;;;11.80;99.90;;;;;;5009941;28;20442;-67
2023/05/14 05:46:13;;;;;;;11.13;10.13;;;11.90;99.90;;;;;;5010777;28;20457;-68
2023/05/14 05:48:41;;;;;;;12.40;11.20;;;11.90;99.90;;;;;;5011148;28;20448;-67
2023/05/14 05:51:09;;;;;;;11.60;10.40;;;11.90;99.90;;;;;;5011086;28;20450;-67
2023/05/14 05:53:37;;;;;;;11.27;10.03;;;11.80;99.90;;;;;;5010128;28;20448;-68
2023/05/14 05:56:07;;;;;;;10.37;9.37;;;11.80;99.90;;;;;;5011220;28;20574;-68
2023/05/14 05:58:35;;;;;;;11.10;10.00;;;12.00;99.90;;;;;;5011109;28;20822;-67
2023/05/14 06:01:03;;;;;;;10.30;9.30;;;12.10;99.90;;;;;;5011042;28;20822;-66
2023/05/14 06:03:31;;;;;;;9.80;8.90;;;12.30;99.90;;;;;;5009558;28;20555;-66
2023/05/14 06:05:59;;;;;;;10.63;9.73;;;12.30;99.90;;;;;;5010934;28;20461;-66
2023/05/14 06:08:27;;;;;;;10.43;9.20;;;12.40;99.90;;;;;;5010637;28;20453;-66
2023/05/14 06:10:55;;;;;;;10.20;9.30;;;12.50;99.40;;;;;;5010982;28;20452;-66
2023/05/14 06:13:24;;;;;;;10.73;9.63;;;12.60;99.30;;;;;;5009391;28;20505;-67
2023/05/14 06:15:52;;;;;;;11.40;10.00;;;12.50;98.10;;;;;;5010426;28;20456;-66
2023/05/14 06:18:20;;;;;;;10.47;9.47;;;12.50;98.50;;;;;;5010655;28;20448;-67
2023/05/14 06:20:48;;;;;;;13.40;9.90;;;12.50;98.50;;;;;;5010321;28;20529;-67
2023/05/14 06:23:16;;;;;;;11.77;10.67;;;12.50;99.30;;;;;;5009279;28;20536;-67
2023/05/14 06:25:44;;;;;;;11.40;10.27;;;12.70;99.10;;;;;;5010428;28;20534;-67
2023/05/14 06:28:12;;;;;;;11.00;9.90;;;12.80;97.10;;;;;;5010340;28;20444;-67
2023/05/14 06:30:41;;;;;;;11.70;10.60;;;13.00;98.80;;;;;;5010354;28;20472;-67
2023/05/14 06:33:09;;;;;;;11.70;10.50;;;13.30;97.30;;;;;;5008940;28;20958;-67
2023/05/14 06:38:05;;;;;;;11.10;10.10;;;13.50;95.30;;;;;;5008099;28;20489;-67
2023/05/14 06:40:33;;;;;;;10.47;9.50;;;13.50;94.40;;;;;;5010314;28;20452;-67
2023/05/14 06:43:01;;;;;;;11.63;10.60;;;13.40;95.10;;;;;;5008985;28;20452;-68
2023/05/14 06:45:29;;;;;;;10.77;9.30;;;13.50;95.40;;;;;;5010337;28;20501;-67
2023/05/14 06:48:01;;;;;;;11.60;10.20;;;13.50;95.00;;;;;;5010239;28;20453;-66
2023/05/14 06:50:29;;;;;;;12.17;10.90;;;13.40;94.30;;;;;;5010445;28;20997;-68
2023/05/14 06:52:57;;;;;;;11.80;10.60;;;13.40;94.70;;;;;;5008200;28;20842;-68
2023/05/14 06:55:25;;;;;;;13.83;12.00;;;13.50;94.20;;;;;;5011796;28;20461;-69
2023/05/14 06:57:53;;;;;;;11.23;9.77;;;13.70;93.20;;;;;;5012674;28;20473;-69
2023/05/14 07:00:22;;;;;;;11.43;10.03;;;13.60;93.90;;;;;;5004009;28;20810;-68
2023/05/14 07:02:50;;;;;;;11.20;10.10;;;13.80;93.40;;;;;;5008657;28;20484;-68
2023/05/14 07:05:19;;;;;;;10.80;9.70;;;14.00;92.60;;;;;;5009866;28;20458;-68
2023/05/14 07:07:47;;;;;;;11.60;10.53;;;14.00;92.10;;;;;;5009902;28;20434;-68
2023/05/14 07:10:15;;;;;;;11.23;10.23;;;14.10;92.10;;;;;;5009581;28;20548;-68
2023/05/14 07:12:44;;;;;;;11.93;10.87;;;14.20;93.20;;;;;;5009208;28;20446;-69
2023/05/14 07:15:12;;;;;;;11.27;10.20;;;14.30;94.40;;;;;;5009995;28;20481;-67
2023/05/14 07:17:40;;;;;;;10.90;9.80;;;14.60;94.20;;;;;;5012450;28;20484;-63
2023/05/14 07:20:09;;;;;;;10.67;9.67;;;15.00;92.20;;;;;;5007929;28;20439;-68
2023/05/14 07:22:39;;;;;;;11.03;10.03;;;15.10;93.70;;;;;;5000498;28;20448;-68
2023/05/14 07:25:07;;;;;;;10.80;9.53;;;15.50;90.80;;;;;;5025304;28;20465;-68
2023/05/14 07:27:35;;;;;;;12.07;10.77;;;15.40;91.40;;;;;;5013061;28;20444;-68
2023/05/14 07:30:03;;;;;;;10.50;9.60;;;15.60;92.60;;;;;;5022408;28;20445;-68
2023/05/14 07:32:31;;;;;;;11.10;10.10;;;15.70;88.80;;;;;;5018785;28;20444;-68
2023/05/14 07:34:59;;;;;;;11.73;10.53;;;15.70;88.90;;;;;;5018622;28;20460;-68
2023/05/14 07:37:27;;;;;;;10.80;9.90;;;15.80;84.50;;;;;;5012521;28;20493;-68
2023/05/14 07:39:57;;;;;;;11.20;10.20;;;15.60;86.50;;;;;;5023613;28;20441;-68
2023/05/14 07:42:25;;;;;;;11.70;10.60;;;15.80;85.10;;;;;;5008057;28;20457;-68
2023/05/14 07:45:04;;;;;;;11.13;10.10;;;15.80;85.30;;;;;;5013475;28;20464;-67
2023/05/14 07:47:32;;;;;;;11.07;10.07;;;15.90;82.50;;;;;;5012103;28;20447;-67
2023/05/14 07:50:00;;;;;;;11.57;10.40;;;15.90;81.80;;;;;;5024257;28;20465;-67
2023/05/14 07:52:28;;;;;;;12.27;11.07;;;16.20;82.20;;;;;;5016002;28;20468;-70
2023/05/14 07:54:58;;;;;;;13.05;11.95;;;16.60;80.30;;;;;;5010465;28;20437;-67
2023/05/14 07:57:26;;;;;;;11.80;10.80;;;16.50;81.10;;;;;;5014875;28;20296;-67
2023/05/14 07:59:55;;;;;;;11.50;10.50;;;16.60;78.60;;;;;;5027153;28;20603;-67
2023/05/14 08:02:23;;;;;;;12.10;10.90;;;16.40;78.90;;;;;;5012512;28;20451;-66
2023/05/14 08:04:51;;;;;;;12.20;11.10;;;16.60;79.20;;;;;;5012817;28;20468;-68
2023/05/14 08:07:18;;;;;;;10.70;9.80;;;16.80;81.90;;;;;;5013352;28;20433;-68
2023/05/14 08:09:46;;;;;;;11.20;10.20;;;17.00;77.60;;;;;;5013464;28;20446;-68
2023/05/14 08:12:16;;;;;;;11.63;10.53;;;17.00;77.80;;;;;;5012189;28;20451;-68
2023/05/14 08:14:44;;;;;;;12.13;11.10;;;17.00;77.60;;;;;;5012055;28;20449;-68
2023/05/14 08:17:12;;;;;;;12.23;11.23;;;16.60;78.20;;;;;;5012658;28;20453;-68
2023/05/14 08:19:40;;;;;;;12.97;11.73;;;16.30;80.50;;;;;;5012670;28;20457;-68
2023/05/14 08:22:08;;;;;;;11.73;10.40;;;16.40;80.70;;;;;;5012564;28;20872;-68
2023/05/14 08:24:36;;;;;;;11.13;10.17;;;16.20;79.50;;;;;;5011616;28;20453;-68
2023/05/14 08:27:05;;;;;;;12.43;11.33;;;16.20;80.80;;;;;;5012623;28;20874;-68
2023/05/14 08:29:34;;;;;;;10.80;9.90;;;16.30;80.70;;;;;;5012324;28;20446;-68
2023/05/14 08:32:02;;;;;;;11.60;10.50;;;16.50;80.40;;;;;;5012641;28;20457;-68
2023/05/14 08:34:49;;;;;;;11.77;10.67;;;16.60;79.60;;;;;;5011767;28;20443;-69
2023/05/14 08:37:17;;;;;;;12.70;11.40;;;16.60;79.10;;;;;;5008424;28;20457;-68
2023/05/14 08:39:45;;;;;;;11.67;10.67;;;16.50;78.90;;;;;;5011491;28;20450;-69
2023/05/14 08:42:15;;;;;;;11.77;10.77;;;16.50;78.60;;;;;;5011901;28;20535;-67
2023/05/14 08:44:48;;;;;;;11.97;11.00;;;16.50;79.20;;;;;;5011519;28;20472;-67
2023/05/14 08:47:21;;;;;;;11.83;10.43;;;16.60;79.70;;;;;;5012703;28;20453;-67
2023/05/14 08:49:57;;;;;;;12.20;11.10;;;16.90;80.40;;;;;;5012294;28;20964;-68
2023/05/14 08:52:26;;;;;;;13.27;12.10;;;17.10;78.10;;;;;;5010298;28;20485;-67
2023/05/14 08:54:55;;;;;;;12.47;11.40;;;17.20;77.70;;;;;;5007752;28;21201;-68
2023/05/14 08:57:25;;;;;;;11.43;10.33;;;17.50;77.70;;;;;;5005721;28;20445;-68
2023/05/14 08:59:54;;;;;;;12.53;11.40;;;17.60;77.10;;;;;;5011711;28;20823;-68
2023/05/14 09:02:24;;;;;;;12.87;11.70;;;17.40;76.70;;;;;;5011053;28;20461;-67
2023/05/14 09:04:56;;;;;;;13.17;11.97;;;17.20;80.80;;;;;;5011866;28;20458;-68
2023/05/14 09:07:24;;;;;;;14.47;13.17;;;17.20;78.90;;;;;;5005204;28;20451;-67
2023/05/14 09:09:53;;;;;;;14.83;12.50;;;16.70;78.50;;;;;;4992727;28;20542;-68
2023/05/14 09:12:22;;;;;;;13.07;11.97;;;16.70;81.60;;;;;;5004161;28;20442;-68
2023/05/14 09:14:51;;;;;;;12.43;11.33;;;17.00;79.50;;;;;;5010497;28;20461;-68
2023/05/14 09:17:20;;;;;;;11.53;10.43;;;17.20;81.70;;;;;;5024864;28;20441;-68
2023/05/14 09:19:51;;;;;;;12.43;11.30;;;17.70;80.00;;;;;;5029889;28;20484;-68
2023/05/14 09:22:21;;;;;;;11.00;9.90;;;18.10;77.00;;;;;;5022135;28;20469;-67
2023/05/14 09:25:03;;;;;;;13.37;12.17;;;18.10;73.80;;;;;;5015593;28;21155;-66
2023/05/14 09:27:33;;;;;;;12.50;11.40;;;18.00;74.20;;;;;;5015841;28;20797;-66
2023/05/14 09:30:09;;;;;;;13.80;12.20;;;17.80;74.10;;;;;;5024571;28;20449;-66
2023/05/14 09:32:44;;;;;;;13.20;12.03;;;17.70;73.20;;;;;;5012383;28;20445;-68
2023/05/14 09:35:17;;;;;;;14.17;12.87;;;17.50;78.30;;;;;;5022027;28;20460;-68
2023/05/14 09:37:47;;;;;;;12.80;11.60;;;17.20;76.90;;;;;;5022408;28;20449;-70
2023/05/14 09:40:16;;;;;;;12.47;11.37;;;17.20;77.60;;;;;;5008060;28;20442;-68
2023/05/14 09:42:44;;;;;;;11.37;10.37;;;17.60;78.90;;;;;;5012898;28;20499;-69
2023/05/14 09:45:12;;;;;;;11.53;10.43;;;18.30;74.80;;;;;;5022339;28;20462;-68
2023/05/14 09:47:43;;;;;;;13.27;11.97;;;18.90;70.00;;;;;;5021490;28;20976;-69
2023/05/14 09:50:12;;;;;;;10.60;9.80;;;19.10;69.50;;;;;;5013886;28;20449;-70
2023/05/14 09:52:40;;;;;;;11.70;10.70;;;19.10;68.60;;;;;;5008072;28;20445;-69
2023/05/14 09:55:08;;;;;;;11.13;10.13;;;19.00;67.40;;;;;;5022366;28;20466;-68
2023/05/14 09:57:36;;;;;;;11.07;10.10;;;19.10;70.60;;;;;;5016512;28;20449;-68
2023/05/14 10:00:07;;;;;;;11.93;10.93;;;19.30;70.60;;;;;;5024760;28;20509;-68
2023/05/14 10:02:39;;;;;;;12.80;11.70;;;19.60;66.30;;;;;;5009775;28;20450;-67
2023/05/14 10:05:10;;;;;;;10.20;9.43;;;19.50;67.30;;;;;;5009764;28;20470;-69
2023/05/14 10:07:42;;;;;;;10.50;9.50;;;19.70;71.50;;;;;;5010244;28;20442;-68
2023/05/14 10:10:15;;;;;;;10.87;9.97;;;19.90;66.50;;;;;;5004771;28;20437;-68
2023/05/14 10:12:46;;;;;;;10.70;9.90;;;20.30;68.20;;;;;;5000656;28;20488;-68
2023/05/14 10:15:21;;;;;;;9.40;8.50;;;20.70;63.00;;;;;;5010138;28;20549;-68
2023/05/14 10:17:55;;;;;;;10.27;9.47;;;21.20;65.10;;;;;;5009866;28;20520;-68
2023/05/14 10:20:26;;;;;;;10.50;9.60;;;20.80;62.50;;;;;;5006434;28;20473;-68
2023/05/14 10:22:54;;;;;;;9.80;9.07;;;21.00;64.50;;;;;;5008782;28;20522;-68
2023/05/14 10:25:23;;;;;;;11.60;10.70;;;21.20;64.10;;;;;;5021218;28;20500;-68
2023/05/14 10:27:51;;;;;;;10.53;9.63;;;22.20;62.10;;;;;;5023502;28;20445;-68
2023/05/14 10:30:22;;;;;;;10.33;9.53;;;22.90;62.50;;;;;;5020730;28;20434;-68
2023/05/14 10:33:05;;;;;;;10.63;9.80;;;23.10;59.00;;;;;;5022287;28;20966;-68
2023/05/14 10:35:51;;;;;;;11.27;10.20;;;22.30;57.70;;;;;;5023651;28;20978;-69
2023/05/14 10:38:23;;;;;;;9.90;9.10;;;20.10;62.00;;;;;;5021933;28;20437;-71
2023/05/14 10:40:51;;;;;;;9.80;9.10;;;18.80;65.90;;;;;;4998541;28;20756;-72
2023/05/14 10:43:22;;;;;;;10.63;9.63;;;18.10;70.20;;;;;;4999101;28;20469;-71
2023/05/14 10:45:51;;;;;;;11.03;10.13;;;18.00;72.90;;;;;;5013119;28;21063;-70
2023/05/14 10:48:22;;;;;;;11.77;10.77;;;18.10;71.10;;;;;;5013000;28;20526;-69
2023/05/14 10:50:53;;;;;;;10.20;9.10;;;18.20;72.10;;;;;;5026365;28;20491;-70
2023/05/14 10:53:29;;;;;;;12.30;11.30;;;18.30;71.00;;;;;;5014934;28;20451;-70
2023/05/14 10:55:58;;;;;;;10.70;9.70;;;18.30;70.20;;;;;;5018026;28;20918;-70
2023/05/14 10:58:28;;;;;;;9.70;8.83;;;18.70;69.80;;;;;;5009867;28;20493;-67
2023/05/14 11:00:56;;;;;;;9.90;9.00;;;19.70;66.50;;;;;;5010301;28;20442;-68
2023/05/14 11:03:28;;;;;;;8.80;8.00;;;20.50;64.00;;;;;;5009371;28;20462;-68
2023/05/14 11:05:59;;;;;;;10.13;9.33;;;20.80;63.30;;;;;;5009423;28;20469;-68
2023/05/14 11:08:28;;;;;;;9.73;8.97;;;20.90;63.00;;;;;;5004797;28;20558;-68
2023/05/14 11:10:57;;;;;;;10.10;9.23;;;20.90;62.90;;;;;;5005273;28;20518;-69
2023/05/14 11:13:26;;;;;;;9.20;8.50;;;21.20;61.40;;;;;;5007668;28;20438;-69
2023/05/14 11:15:55;;;;;;;8.97;8.23;;;21.70;60.00;;;;;;5004369;28;21025;-67
2023/05/14 11:18:27;;;;;;;9.33;8.30;;;21.00;60.20;;;;;;5002241;28;20422;-68
2023/05/14 11:21:00;;;;;;;8.80;8.10;;;21.30;60.00;;;;;;5000718;28;20478;-68
2023/05/14 11:23:29;;;;;;;9.70;9.00;;;22.50;60.90;;;;;;5001834;28;20519;-67
2023/05/14 11:25:57;;;;;;;8.90;8.20;;;23.50;56.70;;;;;;5012151;28;21017;-68
2023/05/14 11:28:26;;;;;;;8.90;8.30;;;23.50;54.20;;;;;;5018914;28;20462;-67
2023/05/14 11:30:54;;;;;;;7.40;6.70;;;21.50;56.40;;;;;;5016506;28;20525;-68
2023/05/14 11:33:22;;;;;;;7.30;6.80;;;20.40;60.70;;;;;;5018236;28;20441;-68
2023/05/14 11:35:50;;;;;;;8.20;7.50;;;19.80;63.40;;;;;;5013277;28;20956;-68
2023/05/14 11:38:21;;;;;;;8.43;7.73;;;19.50;64.20;;;;;;5004751;28;20438;-68
2023/05/14 11:40:52;;;;;;;7.90;7.27;;;19.10;62.80;;;;;;5007965;28;21050;-68
2023/05/14 11:43:22;;;;;;;7.90;7.20;;;19.50;72.50;;;;;;5014261;28;20449;-67
2023/05/14 11:45:51;;;;;;;8.17;7.43;;;20.20;62.30;;;;;;5026690;28;20553;-68
2023/05/14 11:48:19;;;;;;;7.77;7.07;;;19.90;61.40;;;;;;5022279;28;20434;-68
2023/05/14 11:50:48;;;;;;;8.27;7.60;;;20.00;70.80;;;;;;5027427;28;20475;-68
2023/05/14 11:53:18;;;;;;;8.77;7.97;;;20.10;70.20;;;;;;5016161;28;20430;-68
2023/05/14 11:55:47;;;;;;;7.13;6.57;;;20.00;70.00;;;;;;5029381;28;20561;-68
2023/05/14 11:58:17;;;;;;;7.90;7.20;;;20.00;74.30;;;;;;5013143;28;20900;-68
2023/05/14 12:00:46;;;;;;;7.83;7.10;;;20.00;69.90;;;;;;5023886;28;20481;-67
2023/05/14 12:03:14;;;;;;;8.40;7.70;;;20.00;70.10;;;;;;5007829;28;20928;-67
2023/05/14 12:05:55;;;;;;;7.10;6.50;;;20.30;72.60;;;;;;5008908;28;20461;-68
2023/05/14 12:08:27;;;;;;;8.17;7.47;;;20.80;67.60;;;;;;5008603;28;20480;-67
2023/05/14 12:10:57;;;;;;;8.00;7.23;;;21.30;64.20;;;;;;5007535;28;20434;-68
2023/05/14 12:13:26;;;;;;;8.20;7.60;;;21.50;64.40;;;;;;5007180;28;20508;-67
2023/05/14 12:15:56;;;;;;;6.97;6.47;;;22.00;60.80;;;;;;5008469;28;20462;-68
2023/05/14 12:18:25;;;;;;;7.70;7.10;;;23.20;63.30;;;;;;5007860;28;20832;-68
2023/05/14 12:20:53;;;;;;;6.77;6.10;;;24.70;57.90;;;;;;5008285;28;20485;-67
2023/05/14 12:23:25;;;;;;;7.10;6.50;;;23.70;52.80;;;;;;5005560;28;20874;-68
2023/05/14 12:25:53;;;;;;;7.00;6.50;;;22.00;56.60;;;;;;5008088;28;20461;-68
2023/05/14 12:28:23;;;;;;;6.10;5.60;;;20.50;57.60;;;;;;5006195;28;20460;-68
2023/05/14 12:30:56;;;;;;;7.03;6.10;;;19.60;60.70;;;;;;5007951;28;20826;-67
2023/05/14 12:33:25;;;;;;;6.30;5.77;;;19.90;60.70;;;;;;5007799;28;20458;-68
2023/05/14 12:35:56;;;;;;;7.13;6.53;;;20.10;59.20;;;;;;5007067;28;20462;-67
2023/05/14 12:38:27;;;;;;;6.10;5.60;;;20.70;58.40;;;;;;5009776;28;20449;-68
2023/05/14 12:40:55;;;;;;;6.63;6.10;;;21.90;57.40;;;;;;5009658;28;20495;-68
2023/05/14 12:43:30;;;;;;;7.77;6.20;;;22.00;55.30;;;;;;5007806;28;20457;-68
2023/05/14 12:45:58;;;;;;;6.67;6.07;;;21.90;55.70;;;;;;5008861;28;20513;-68